createdAt,value
2019-06-01T00:00:39.996Z,1017.35
2019-06-01T00:01:40.428Z,1017.39
2019-06-01T00:02:40.797Z,1017.36
2019-06-01T00:03:40.250Z,1017.39
2019-06-01T00:04:40.811Z,1017.39
2019-06-01T00:05:40.497Z,1017.41
2019-06-01T00:06:40.687Z,1017.38
2019-06-01T00:07:40.689Z,1017.37
2019-06-01T00:08:40.196Z,1017.40
2019-06-01T00:09:39.369Z,1017.43
2019-06-01T00:10:39.382Z,1017.43
2019-06-01T00:11:39.395Z,1017.45
2019-06-01T00:12:39.395Z,1017.44
2019-06-01T00:13:39.506Z,1017.41
2019-06-01T00:14:39.710Z,1017.40
2019-06-01T00:15:39.905Z,1017.42
2019-06-01T00:16:39.922Z,1017.43
2019-06-01T00:17:39.724Z,1017.44
2019-06-01T00:18:39.824Z,1017.39
2019-06-01T00:19:39.941Z,1017.41
2019-06-01T00:20:40.082Z,1017.43
2019-06-01T00:21:39.214Z,1017.43
2019-06-01T00:22:39.257Z,1017.42
2019-06-01T00:23:40.298Z,1017.41
2019-06-01T00:24:39.196Z,1017.39
2019-06-01T00:25:40.348Z,1017.36
2019-06-01T00:26:39.170Z,1017.39
2019-06-01T00:27:40.359Z,1017.39
2019-06-01T00:28:39.168Z,1017.37
2019-06-01T00:29:39.132Z,1017.38
2019-06-01T00:30:39.140Z,1017.41
2019-06-01T00:31:39.120Z,1017.36
2019-06-01T00:32:39.106Z,1017.35
2019-06-01T00:33:39.106Z,1017.28
2019-06-01T00:34:39.111Z,1017.29
2019-06-01T00:35:39.072Z,1017.37
2019-06-01T00:36:39.074Z,1017.32
2019-06-01T00:37:39.072Z,1017.36
2019-06-01T00:38:39.045Z,1017.34
2019-06-01T00:39:39.026Z,1017.33
2019-06-01T00:40:39.035Z,1017.33
2019-06-01T00:41:39.005Z,1017.34
2019-06-01T00:42:39.021Z,1017.30
2019-06-01T00:43:38.987Z,1017.28
2019-06-01T00:44:38.973Z,1017.28
2019-06-01T00:45:39.030Z,1017.30
2019-06-01T00:46:39.044Z,1017.29
2019-06-01T00:47:38.946Z,1017.27
2019-06-01T00:48:38.942Z,1017.32
2019-06-01T00:49:38.945Z,1017.31
2019-06-01T00:50:38.908Z,1017.27
2019-06-01T00:51:38.896Z,1017.26
2019-06-01T00:52:38.903Z,1017.26
2019-06-01T00:53:38.903Z,1017.27
2019-06-01T00:54:38.854Z,1017.27
2019-06-01T00:55:38.889Z,1017.25
2019-06-01T00:56:38.847Z,1017.26
2019-06-01T00:57:38.822Z,1017.24
2019-06-01T00:58:38.818Z,1017.27
2019-06-01T00:59:38.817Z,1017.31
2019-06-01T01:00:43.718Z,1017.26
2019-06-01T01:01:39.796Z,1017.28
2019-06-01T01:02:38.788Z,1017.30
2019-06-01T01:03:38.880Z,1017.26
2019-06-01T01:04:38.756Z,1017.30
2019-06-01T01:05:38.754Z,1017.29
2019-06-01T01:06:38.738Z,1017.31
2019-06-01T01:07:38.735Z,1017.28
2019-06-01T01:08:38.698Z,1017.27
2019-06-01T01:09:38.695Z,1017.33
2019-06-01T01:10:38.697Z,1017.27
2019-06-01T01:11:38.675Z,1017.30
2019-06-01T01:12:39.428Z,1017.28
2019-06-01T01:13:38.668Z,1017.30
2019-06-01T01:14:38.634Z,1017.32
2019-06-01T01:15:38.624Z,1017.35
2019-06-01T01:16:38.627Z,1017.32
2019-06-01T01:17:38.638Z,1017.34
2019-06-01T01:18:38.593Z,1017.36
2019-06-01T01:19:38.577Z,1017.36
2019-06-01T01:20:38.618Z,1017.33
2019-06-01T01:21:38.593Z,1017.35
2019-06-01T01:22:38.561Z,1017.31
2019-06-01T01:23:38.538Z,1017.34
2019-06-01T01:24:38.524Z,1017.29
2019-06-01T01:25:38.548Z,1017.30
2019-06-01T01:26:38.506Z,1017.27
2019-06-01T01:27:38.503Z,1017.32
2019-06-01T01:28:38.502Z,1017.25
2019-06-01T01:29:38.468Z,1017.23
2019-06-01T01:30:38.476Z,1017.25
2019-06-01T01:31:38.449Z,1017.25
2019-06-01T01:32:38.458Z,1017.23
2019-06-01T01:33:38.443Z,1017.25
2019-06-01T01:34:38.422Z,1017.27
2019-06-01T01:35:38.458Z,1017.29
2019-06-01T01:36:38.379Z,1017.28
2019-06-01T01:37:38.380Z,1017.25
2019-06-01T01:38:38.387Z,1017.28
2019-06-01T01:39:39.180Z,1017.25
2019-06-01T01:40:38.363Z,1017.27
2019-06-01T01:41:38.513Z,1017.27
2019-06-01T01:42:38.321Z,1017.24
2019-06-01T01:43:38.311Z,1017.28
2019-06-01T01:44:38.321Z,1017.21
2019-06-01T01:45:38.302Z,1017.20
2019-06-01T01:46:38.277Z,1017.21
2019-06-01T01:47:38.318Z,1017.20
2019-06-01T01:48:38.262Z,1017.18
2019-06-01T01:49:38.263Z,1017.18
2019-06-01T01:50:38.231Z,1017.21
2019-06-01T01:51:38.238Z,1017.18
2019-06-01T01:52:38.207Z,1017.20
2019-06-01T01:53:38.221Z,1017.18
2019-06-01T01:54:38.191Z,1017.16
2019-06-01T01:55:38.170Z,1017.18
2019-06-01T01:56:38.174Z,1017.18
2019-06-01T01:57:38.181Z,1017.15
2019-06-01T01:58:38.180Z,1017.15
2019-06-01T01:59:38.163Z,1017.13
2019-06-01T02:00:38.142Z,1017.13
2019-06-01T02:01:38.114Z,1017.15
2019-06-01T02:02:38.114Z,1017.14
2019-06-01T02:03:38.081Z,1017.17
2019-06-01T02:04:38.092Z,1017.13
2019-06-01T02:05:38.071Z,1017.13
2019-06-01T02:06:38.271Z,1017.11
2019-06-01T02:07:38.054Z,1017.08
2019-06-01T02:08:38.025Z,1017.08
2019-06-01T02:09:38.309Z,1017.06
2019-06-01T02:10:38.009Z,1017.07
2019-06-01T02:11:38.005Z,1017.07
2019-06-01T02:12:37.992Z,1017.06
2019-06-01T02:13:37.982Z,1017.02
2019-06-01T02:14:38.009Z,1017.00
2019-06-01T02:15:37.944Z,1017.02
2019-06-01T02:16:37.946Z,1016.98
2019-06-01T02:17:37.935Z,1016.99
2019-06-01T02:18:37.925Z,1017.03
2019-06-01T02:19:37.909Z,1016.99
2019-06-01T02:20:37.922Z,1017.01
2019-06-01T02:21:37.893Z,1016.99
2019-06-01T02:22:37.881Z,1016.96
2019-06-01T02:23:37.864Z,1016.96
2019-06-01T02:24:37.885Z,1016.97
2019-06-01T02:25:37.878Z,1016.95
2019-06-01T02:26:37.826Z,1016.95
2019-06-01T02:27:37.814Z,1016.98
2019-06-01T02:28:37.800Z,1016.98
2019-06-01T02:29:37.806Z,1016.95
2019-06-01T02:30:37.802Z,1016.97
2019-06-01T02:31:42.359Z,1016.96
2019-06-01T02:32:38.766Z,1016.94
2019-06-01T02:33:37.756Z,1016.92
2019-06-01T02:34:37.736Z,1016.95
2019-06-01T02:35:37.730Z,1016.92
2019-06-01T02:36:37.747Z,1016.88
2019-06-01T02:37:37.695Z,1016.89
2019-06-01T02:38:37.715Z,1016.89
2019-06-01T02:39:37.695Z,1016.86
2019-06-01T02:40:37.674Z,1016.84
2019-06-01T02:41:37.669Z,1016.83
2019-06-01T02:42:37.938Z,1016.82
2019-06-01T02:43:37.636Z,1016.79
2019-06-01T02:44:37.634Z,1016.81
2019-06-01T02:45:37.620Z,1016.81
2019-06-01T02:46:37.611Z,1016.81
2019-06-01T02:47:37.588Z,1016.79
2019-06-01T02:48:48.231Z,1016.77
2019-06-01T02:49:37.575Z,1016.76
2019-06-01T02:50:37.589Z,1016.79
2019-06-01T02:51:37.543Z,1016.79
2019-06-01T02:52:37.528Z,1016.79
2019-06-01T02:53:37.545Z,1016.81
2019-06-01T02:54:37.516Z,1016.81
2019-06-01T02:55:37.507Z,1016.82
2019-06-01T02:56:37.484Z,1016.82
2019-06-01T02:57:37.487Z,1016.86
2019-06-01T02:58:37.503Z,1016.83
2019-06-01T02:59:37.470Z,1016.83
2019-06-01T03:00:37.462Z,1016.82
2019-06-01T03:01:37.456Z,1016.84
2019-06-01T03:02:37.433Z,1016.83
2019-06-01T03:03:37.431Z,1016.83
2019-06-01T03:04:37.489Z,1016.82
2019-06-01T03:05:37.396Z,1016.86
2019-06-01T03:06:37.387Z,1016.87
2019-06-01T03:07:37.364Z,1016.84
2019-06-01T03:08:37.361Z,1016.85
2019-06-01T03:09:37.353Z,1016.85
2019-06-01T03:10:37.501Z,1016.87
2019-06-01T03:11:37.326Z,1016.88
2019-06-01T03:12:37.340Z,1016.86
2019-06-01T03:13:37.299Z,1016.89
2019-06-01T03:14:37.297Z,1016.83
2019-06-01T03:15:37.271Z,1016.88
2019-06-01T03:16:40.044Z,1016.87
2019-06-01T03:17:37.287Z,1016.88
2019-06-01T03:18:37.236Z,1016.83
2019-06-01T03:19:37.239Z,1016.89
2019-06-01T03:20:37.222Z,1016.83
2019-06-01T03:21:37.209Z,1016.81
2019-06-01T03:22:37.212Z,1016.83
2019-06-01T03:23:37.219Z,1016.81
2019-06-01T03:24:37.208Z,1016.80
2019-06-01T03:25:37.168Z,1016.83
2019-06-01T03:26:37.180Z,1016.81
2019-06-01T03:27:37.163Z,1016.80
2019-06-01T03:28:37.147Z,1016.86
2019-06-01T03:29:37.116Z,1016.81
2019-06-01T03:30:37.111Z,1016.78
2019-06-01T03:31:37.116Z,1016.81
2019-06-01T03:32:37.696Z,1016.82
2019-06-01T03:33:37.091Z,1016.79
2019-06-01T03:34:37.068Z,1016.83
2019-06-01T03:35:37.057Z,1016.80
2019-06-01T03:36:37.044Z,1016.80
2019-06-01T03:37:37.044Z,1016.77
2019-06-01T03:38:37.028Z,1016.77
2019-06-01T03:39:37.018Z,1016.77
2019-06-01T03:40:36.989Z,1016.78
2019-06-01T03:41:36.994Z,1016.79
2019-06-01T03:42:36.978Z,1016.74
2019-06-01T03:43:38.007Z,1016.80
2019-06-01T03:44:36.953Z,1016.79
2019-06-01T03:45:36.954Z,1016.78
2019-06-01T03:46:36.925Z,1016.77
2019-06-01T03:47:36.919Z,1016.77
2019-06-01T03:48:36.964Z,1016.79
2019-06-01T03:49:36.901Z,1016.77
2019-06-01T03:50:36.894Z,1016.78
2019-06-01T03:51:36.880Z,1016.82
2019-06-01T03:52:36.867Z,1016.83
2019-06-01T03:53:36.869Z,1016.81
2019-06-01T03:54:36.855Z,1016.85
2019-06-01T03:55:36.834Z,1016.85
2019-06-01T03:56:36.840Z,1016.88
2019-06-01T03:57:36.799Z,1016.91
2019-06-01T03:58:36.798Z,1016.88
2019-06-01T03:59:36.788Z,1016.93
2019-06-01T04:00:36.816Z,1016.92
2019-06-01T04:01:36.764Z,1016.92
2019-06-01T04:02:36.763Z,1016.93
2019-06-01T04:03:36.739Z,1016.90
2019-06-01T04:04:36.729Z,1016.93
2019-06-01T04:05:36.717Z,1016.90
2019-06-01T04:06:36.755Z,1016.90
2019-06-01T04:07:38.883Z,1016.89
2019-06-01T04:08:36.683Z,1016.91
2019-06-01T04:09:36.669Z,1016.88
2019-06-01T04:10:36.663Z,1016.90
2019-06-01T04:11:36.642Z,1016.91
2019-06-01T04:12:36.747Z,1016.94
2019-06-01T04:13:36.643Z,1016.96
2019-06-01T04:14:36.625Z,1016.95
2019-06-01T04:15:36.606Z,1016.96
2019-06-01T04:16:36.596Z,1016.98
2019-06-01T04:17:36.617Z,1016.94
2019-06-01T04:18:36.580Z,1016.93
2019-06-01T04:19:36.598Z,1016.94
2019-06-01T04:20:36.555Z,1016.95
2019-06-01T04:21:36.532Z,1016.96
2019-06-01T04:22:36.520Z,1016.95
2019-06-01T04:23:36.627Z,1016.97
2019-06-01T04:24:36.517Z,1016.96
2019-06-01T04:25:36.509Z,1016.95
2019-06-01T04:26:36.483Z,1016.93
2019-06-01T04:27:36.470Z,1016.93
2019-06-01T04:28:36.460Z,1016.93
2019-06-01T04:29:36.488Z,1016.95
2019-06-01T04:30:36.449Z,1016.94
2019-06-01T04:31:36.417Z,1016.95
2019-06-01T04:32:48.818Z,1016.91
2019-06-01T04:33:37.402Z,1016.98
2019-06-01T04:34:36.409Z,1016.94
2019-06-01T04:35:36.398Z,1016.94
2019-06-01T04:36:36.427Z,1016.95
2019-06-01T04:37:36.354Z,1016.95
2019-06-01T04:38:36.357Z,1016.92
2019-06-01T04:39:36.351Z,1016.96
2019-06-01T04:40:36.327Z,1016.97
2019-06-01T04:41:36.315Z,1016.99
2019-06-01T04:42:36.451Z,1016.98
2019-06-01T04:43:36.301Z,1017.02
2019-06-01T04:44:36.308Z,1017.01
2019-06-01T04:45:36.305Z,1017.03
2019-06-01T04:46:36.277Z,1017.04
2019-06-01T04:47:36.251Z,1017.02
2019-06-01T04:48:36.236Z,1017.07
2019-06-01T04:49:36.229Z,1017.11
2019-06-01T04:50:36.209Z,1017.09
2019-06-01T04:51:36.224Z,1017.13
2019-06-01T04:52:36.201Z,1017.10
2019-06-01T04:53:36.188Z,1017.14
2019-06-01T04:54:36.167Z,1017.07
2019-06-01T04:55:36.159Z,1017.08
2019-06-01T04:56:36.169Z,1017.07
2019-06-01T04:57:36.151Z,1017.07
2019-06-01T04:58:36.167Z,1017.10
2019-06-01T04:59:37.905Z,1017.08
2019-06-01T05:00:36.117Z,1017.12
2019-06-01T05:01:36.100Z,1017.10
2019-06-01T05:02:36.100Z,1017.14
2019-06-01T05:03:36.097Z,1017.08
2019-06-01T05:04:36.067Z,1017.07
2019-06-01T05:05:36.102Z,1017.09
2019-06-01T05:06:36.028Z,1017.09
2019-06-01T05:07:36.600Z,1017.10
2019-06-01T05:08:36.030Z,1017.10
2019-06-01T05:09:35.998Z,1017.18
2019-06-01T05:10:36.001Z,1017.14
2019-06-01T05:11:37.966Z,1017.18
2019-06-01T05:12:35.982Z,1017.19
2019-06-01T05:13:36.010Z,1017.19
2019-06-01T05:14:35.967Z,1017.23
2019-06-01T05:15:35.962Z,1017.17
2019-06-01T05:16:35.953Z,1017.15
2019-06-01T05:17:35.906Z,1017.15
2019-06-01T05:18:35.893Z,1017.12
2019-06-01T05:19:35.904Z,1017.15
2019-06-01T05:20:35.875Z,1017.19
2019-06-01T05:21:35.884Z,1017.16
2019-06-01T05:22:35.863Z,1017.17
2019-06-01T05:23:35.839Z,1017.22
2019-06-01T05:24:35.891Z,1017.21
2019-06-01T05:25:35.843Z,1017.18
2019-06-01T05:26:35.810Z,1017.13
2019-06-01T05:27:35.863Z,1017.16
2019-06-01T05:28:35.789Z,1017.17
2019-06-01T05:29:35.767Z,1017.17
2019-06-01T05:30:35.774Z,1017.13
2019-06-01T05:31:35.762Z,1017.13
2019-06-01T05:32:35.752Z,1017.16
2019-06-01T05:33:37.664Z,1017.15
2019-06-01T05:34:35.744Z,1017.21
2019-06-01T05:35:35.762Z,1017.20
2019-06-01T05:36:35.689Z,1017.21
2019-06-01T05:37:35.686Z,1017.21
2019-06-01T05:38:35.684Z,1017.20
2019-06-01T05:39:35.659Z,1017.24
2019-06-01T05:40:35.765Z,1017.22
2019-06-01T05:41:35.644Z,1017.24
2019-06-01T05:42:35.646Z,1017.23
2019-06-01T05:43:35.610Z,1017.18
2019-06-01T05:44:35.626Z,1017.23
2019-06-01T05:45:35.610Z,1017.22
2019-06-01T05:46:35.628Z,1017.23
2019-06-01T05:47:35.574Z,1017.22
2019-06-01T05:48:35.590Z,1017.24
2019-06-01T05:49:35.549Z,1017.23
2019-06-01T05:50:35.555Z,1017.24
2019-06-01T05:51:35.534Z,1017.22
2019-06-01T05:52:35.540Z,1017.21
2019-06-01T05:53:35.521Z,1017.22
2019-06-01T05:54:35.488Z,1017.24
2019-06-01T05:55:35.484Z,1017.20
2019-06-01T05:56:35.489Z,1017.19
2019-06-01T05:57:35.458Z,1017.21
2019-06-01T05:58:35.508Z,1017.22
2019-06-01T05:59:35.450Z,1017.18
2019-06-01T06:00:35.433Z,1017.22
2019-06-01T06:01:35.439Z,1017.20
2019-06-01T06:02:35.400Z,1017.21
2019-06-01T06:03:40.261Z,1017.25
2019-06-01T06:04:36.402Z,1017.22
2019-06-01T06:05:35.379Z,1017.21
2019-06-01T06:06:35.365Z,1017.24
2019-06-01T06:07:35.367Z,1017.18
2019-06-01T06:08:35.356Z,1017.22
2019-06-01T06:09:35.495Z,1017.29
2019-06-01T06:10:35.344Z,1017.25
2019-06-01T06:11:35.339Z,1017.20
2019-06-01T06:12:35.296Z,1017.19
2019-06-01T06:13:35.283Z,1017.18
2019-06-01T06:14:35.282Z,1017.19
2019-06-01T06:15:35.275Z,1017.24
2019-06-01T06:16:35.301Z,1017.20
2019-06-01T06:17:35.242Z,1017.24
2019-06-01T06:18:35.234Z,1017.26
2019-06-01T06:19:35.223Z,1017.25
2019-06-01T06:20:35.239Z,1017.26
2019-06-01T06:21:35.206Z,1017.20
2019-06-01T06:22:35.215Z,1017.24
2019-06-01T06:23:35.177Z,1017.21
2019-06-01T06:24:35.173Z,1017.23
2019-06-01T06:25:36.601Z,1017.27
2019-06-01T06:26:35.157Z,1017.27
2019-06-01T06:27:35.135Z,1017.27
2019-06-01T06:28:35.131Z,1017.27
2019-06-01T06:29:35.114Z,1017.29
2019-06-01T06:30:35.106Z,1017.31
2019-06-01T06:31:35.087Z,1017.25
2019-06-01T06:32:35.086Z,1017.28
2019-06-01T06:33:36.968Z,1017.24
2019-06-01T06:34:35.078Z,1017.28
2019-06-01T06:35:35.046Z,1017.27
2019-06-01T06:36:35.059Z,1017.25
2019-06-01T06:37:35.044Z,1017.30
2019-06-01T06:38:35.018Z,1017.30
2019-06-01T06:39:35.018Z,1017.30
2019-06-01T06:40:34.992Z,1017.36
2019-06-01T06:41:34.974Z,1017.38
2019-06-01T06:42:35.171Z,1017.35
2019-06-01T06:43:34.958Z,1017.32
2019-06-01T06:44:34.972Z,1017.36
2019-06-01T06:45:34.931Z,1017.38
2019-06-01T06:46:34.934Z,1017.37
2019-06-01T06:47:34.940Z,1017.42
2019-06-01T06:48:34.907Z,1017.42
2019-06-01T06:49:49.787Z,1017.47
2019-06-01T06:50:34.891Z,1017.38
2019-06-01T06:51:34.921Z,1017.35
2019-06-01T06:52:34.863Z,1017.33
2019-06-01T06:53:35.580Z,1017.30
2019-06-01T06:54:34.851Z,1017.34
2019-06-01T06:55:34.816Z,1017.34
2019-06-01T06:56:34.845Z,1017.33
2019-06-01T06:57:34.894Z,1017.31
2019-06-01T06:58:34.793Z,1017.33
2019-06-01T06:59:34.783Z,1017.30
2019-06-01T07:00:34.801Z,1017.34
2019-06-01T07:01:34.754Z,1017.38
2019-06-01T07:02:34.746Z,1017.34
2019-06-01T07:03:34.776Z,1017.39
2019-06-01T07:04:34.719Z,1017.43
2019-06-01T07:05:34.723Z,1017.45
2019-06-01T07:06:34.698Z,1017.53
2019-06-01T07:07:34.694Z,1017.50
2019-06-01T07:08:34.678Z,1017.52
2019-06-01T07:09:34.714Z,1017.52
2019-06-01T07:10:34.666Z,1017.57
2019-06-01T07:11:34.658Z,1017.53
2019-06-01T07:12:34.638Z,1017.42
2019-06-01T07:13:34.645Z,1017.36
2019-06-01T07:14:34.613Z,1017.37
2019-06-01T07:15:34.729Z,1017.27
2019-06-01T07:16:34.598Z,1017.48
2019-06-01T07:17:34.592Z,1017.54
2019-06-01T07:18:34.571Z,1017.44
2019-06-01T07:19:34.557Z,1017.48
2019-06-01T07:20:35.367Z,1017.49
2019-06-01T07:21:34.549Z,1017.54
2019-06-01T07:22:34.545Z,1017.52
2019-06-01T07:23:34.548Z,1017.55
2019-06-01T07:24:34.500Z,1017.57
2019-06-01T07:25:34.555Z,1017.56
2019-06-01T07:26:34.476Z,1017.38
2019-06-01T07:27:34.480Z,1017.31
2019-06-01T07:28:34.468Z,1017.31
2019-06-01T07:29:34.471Z,1017.54
2019-06-01T07:30:49.683Z,1017.46
2019-06-01T07:31:35.446Z,1017.50
2019-06-01T07:32:34.417Z,1017.43
2019-06-01T07:33:34.435Z,1017.64
2019-06-01T07:34:41.783Z,1017.40
2019-06-01T07:35:35.380Z,1017.29
2019-06-01T07:36:34.419Z,1017.21
2019-06-01T07:37:34.372Z,1017.22
2019-06-01T07:38:34.361Z,1017.39
2019-06-01T07:39:34.348Z,1017.21
2019-06-01T07:40:34.361Z,1017.41
2019-06-01T07:41:35.020Z,1017.70
2019-06-01T07:42:34.306Z,1017.56
2019-06-01T07:43:34.304Z,1017.27
2019-06-01T07:44:34.326Z,1017.70
2019-06-01T07:45:35.379Z,1017.31
2019-06-01T07:46:34.781Z,1017.28
2019-06-01T07:47:34.249Z,1017.23
2019-06-01T07:48:34.273Z,1017.24
2019-06-01T07:49:34.244Z,1017.28
2019-06-01T07:50:34.225Z,1017.29
2019-06-01T07:51:34.244Z,1017.22
2019-06-01T07:52:34.209Z,1017.21
2019-06-01T07:53:34.187Z,1017.28
2019-06-01T07:54:34.218Z,1017.30
2019-06-01T07:55:34.161Z,1017.60
2019-06-01T07:56:34.161Z,1017.34
2019-06-01T07:57:34.165Z,1017.38
2019-06-01T07:58:34.118Z,1017.84
2019-06-01T07:59:34.132Z,1017.68
2019-06-01T08:00:34.123Z,1017.31
2019-06-01T08:01:34.103Z,1017.72
2019-06-01T08:02:34.104Z,1017.36
2019-06-01T08:03:35.099Z,1017.78
2019-06-01T08:04:51.865Z,1017.82
2019-06-01T08:05:35.059Z,1017.73
2019-06-01T08:06:34.056Z,1017.79
2019-06-01T08:07:34.044Z,1017.68
2019-06-01T08:08:34.019Z,1017.27
2019-06-01T08:09:34.039Z,1017.82
2019-06-01T08:10:33.990Z,1017.77
2019-06-01T08:11:35.187Z,1017.67
2019-06-01T08:12:34.246Z,1017.73
2019-06-01T08:13:35.862Z,1017.82
2019-06-01T08:14:34.017Z,1017.78
2019-06-01T08:15:33.944Z,1017.76
2019-06-01T08:16:33.934Z,1017.80
2019-06-01T08:17:33.918Z,1017.51
2019-06-01T08:18:33.919Z,1017.97
2019-06-01T08:19:33.917Z,1017.42
2019-06-01T08:20:33.904Z,1017.51
2019-06-01T08:21:33.885Z,1017.44
2019-06-01T08:22:33.889Z,1017.84
2019-06-01T08:23:33.866Z,1017.32
2019-06-01T08:24:33.865Z,1017.31
2019-06-01T08:25:33.843Z,1017.95
2019-06-01T08:26:33.841Z,1017.94
2019-06-01T08:27:33.845Z,1017.56
2019-06-01T08:28:33.804Z,1017.74
2019-06-01T08:29:33.796Z,1017.79
2019-06-01T08:30:33.777Z,1017.33
2019-06-01T08:31:33.796Z,1017.80
2019-06-01T08:32:33.758Z,1017.88
2019-06-01T08:33:35.075Z,1017.59
2019-06-01T08:34:33.743Z,1017.78
2019-06-01T08:35:33.738Z,1017.72
2019-06-01T08:36:33.994Z,1017.74
2019-06-01T08:37:33.727Z,1017.67
2019-06-01T08:38:33.872Z,1017.65
2019-06-01T08:39:34.238Z,1017.32
2019-06-01T08:40:33.679Z,1017.55
2019-06-01T08:41:33.773Z,1017.62
2019-06-01T08:42:33.783Z,1017.64
2019-06-01T08:43:33.968Z,1017.58
2019-06-01T08:44:35.502Z,1017.50
2019-06-01T08:45:37.255Z,1017.48
2019-06-01T08:46:34.012Z,1017.46
2019-06-01T08:47:34.070Z,1017.40
2019-06-01T08:48:34.096Z,1017.46
2019-06-01T08:49:34.529Z,1017.48
2019-06-01T08:50:34.067Z,1017.49
2019-06-01T08:51:34.187Z,1017.40
2019-06-01T08:52:34.173Z,1017.49
2019-06-01T08:53:34.250Z,1017.45
2019-06-01T08:54:34.354Z,1017.67
2019-06-01T08:55:34.478Z,1017.44
2019-06-01T08:56:34.475Z,1017.46
2019-06-01T08:57:34.576Z,1017.44
2019-06-01T08:58:34.641Z,1017.29
2019-06-01T08:59:34.602Z,1016.98
2019-06-01T09:00:34.654Z,1017.25
2019-06-01T09:01:34.601Z,1017.24
2019-06-01T09:02:34.840Z,1017.40
2019-06-01T09:03:34.214Z,1017.47
2019-06-01T09:04:33.435Z,1017.59
2019-06-01T09:05:33.497Z,1017.40
2019-06-01T09:06:33.516Z,1017.46
2019-06-01T09:07:33.408Z,1017.29
2019-06-01T09:08:33.461Z,1017.18
2019-06-01T09:09:33.395Z,1017.05
2019-06-01T09:10:33.376Z,1016.74
2019-06-01T09:11:33.390Z,1017.12
2019-06-01T09:12:33.379Z,1017.35
2019-06-01T09:13:33.357Z,1017.29
2019-06-01T09:14:33.498Z,1017.37
2019-06-01T09:15:33.728Z,1017.26
2019-06-01T09:16:33.569Z,1016.65
2019-06-01T09:17:33.514Z,1016.77
2019-06-01T09:18:33.712Z,1017.34
2019-06-01T09:19:33.632Z,1017.37
2019-06-01T09:20:38.542Z,1017.49
2019-06-01T09:21:33.619Z,1017.46
2019-06-01T09:22:33.584Z,1016.71
2019-06-01T09:23:33.781Z,1016.86
2019-06-01T09:24:33.973Z,1017.38
2019-06-01T09:25:33.838Z,1017.39
2019-06-01T09:26:33.823Z,1016.82
2019-06-01T09:27:33.952Z,1017.26
2019-06-01T09:28:33.957Z,1016.92
2019-06-01T09:29:34.088Z,1017.24
2019-06-01T09:30:34.020Z,1017.20
2019-06-01T09:31:34.386Z,1017.23
2019-06-01T09:32:34.263Z,1017.30
2019-06-01T09:33:35.066Z,1016.83
2019-06-01T09:34:34.402Z,1016.84
2019-06-01T09:35:48.612Z,1016.91
2019-06-01T09:36:34.533Z,1016.80
2019-06-01T09:37:33.161Z,1017.01
2019-06-01T09:38:33.776Z,1016.77
2019-06-01T09:39:33.228Z,1016.80
2019-06-01T09:40:33.571Z,1016.87
2019-06-01T09:41:33.106Z,1016.78
2019-06-01T09:42:33.415Z,1016.84
2019-06-01T09:43:33.041Z,1017.41
2019-06-01T09:44:33.578Z,1016.82
2019-06-01T09:45:34.496Z,1017.43
2019-06-01T09:46:33.965Z,1016.95
2019-06-01T09:47:33.307Z,1016.76
2019-06-01T09:48:33.599Z,1017.33
2019-06-01T09:49:34.096Z,1016.74
2019-06-01T09:50:33.388Z,1016.79
2019-06-01T09:51:33.455Z,1017.12
2019-06-01T09:52:33.413Z,1016.95
2019-06-01T09:53:34.352Z,1016.85
2019-06-01T09:54:34.480Z,1016.75
2019-06-01T09:55:34.377Z,1016.76
2019-06-01T09:56:33.994Z,1016.81
2019-06-01T09:57:34.111Z,1017.44
2019-06-01T09:58:32.883Z,1016.87
2019-06-01T09:59:33.837Z,1016.77
2019-06-01T10:00:32.885Z,1016.76
2019-06-01T10:01:32.840Z,1017.27
2019-06-01T10:02:34.051Z,1017.24
2019-06-01T10:03:34.334Z,1016.79
2019-06-01T10:04:32.861Z,1016.97
2019-06-01T10:05:32.810Z,1016.77
2019-06-01T10:06:32.789Z,1017.55
2019-06-01T10:07:32.898Z,1017.51
2019-06-01T10:08:34.143Z,1017.36
2019-06-01T10:09:33.623Z,1017.57
2019-06-01T10:10:33.938Z,1017.33
2019-06-01T10:11:34.204Z,1016.71
2019-06-01T10:12:33.715Z,1016.72
2019-06-01T10:13:33.383Z,1017.65
2019-06-01T10:14:33.971Z,1016.79
2019-06-01T10:15:32.736Z,1016.90
2019-06-01T10:16:32.864Z,1017.55
2019-06-01T10:17:33.307Z,1017.51
2019-06-01T10:18:32.836Z,1017.54
2019-06-01T10:19:32.678Z,1017.63
2019-06-01T10:20:33.168Z,1017.42
2019-06-01T10:21:33.904Z,1017.36
2019-06-01T10:22:33.110Z,1017.46
2019-06-01T10:23:32.622Z,1017.50
2019-06-01T10:24:33.014Z,1016.51
2019-06-01T10:25:32.610Z,1017.57
2019-06-01T10:26:34.076Z,1017.46
2019-06-01T10:27:32.648Z,1017.46
2019-06-01T10:28:33.415Z,1017.41
2019-06-01T10:29:32.826Z,1017.50
2019-06-01T10:30:33.898Z,1017.48
2019-06-01T10:31:32.661Z,1017.47
2019-06-01T10:32:34.132Z,1017.55
2019-06-01T10:33:32.713Z,1017.50
2019-06-01T10:34:33.538Z,1017.54
2019-06-01T10:35:32.792Z,1017.50
2019-06-01T10:36:32.499Z,1017.45
2019-06-01T10:37:33.322Z,1017.40
2019-06-01T10:38:33.393Z,1017.31
2019-06-01T10:39:33.038Z,1017.46
2019-06-01T10:40:33.381Z,1017.44
2019-06-01T10:41:33.221Z,1017.37
2019-06-01T10:42:34.007Z,1017.42
2019-06-01T10:43:33.693Z,1017.38
2019-06-01T10:44:36.781Z,1017.45
2019-06-01T10:45:33.619Z,1017.38
2019-06-01T10:46:33.743Z,1016.98
2019-06-01T10:47:33.560Z,1017.26
2019-06-01T10:48:33.163Z,1017.32
2019-06-01T10:49:32.374Z,1017.26
2019-06-01T10:50:34.415Z,1017.38
2019-06-01T10:51:32.398Z,1017.29
2019-06-01T10:52:32.382Z,1016.21
2019-06-01T10:53:32.359Z,1017.09
2019-06-01T10:54:32.880Z,1017.32
2019-06-01T10:55:32.318Z,1017.21
2019-06-01T10:56:32.396Z,1017.30
2019-06-01T10:57:32.368Z,1017.33
2019-06-01T10:58:32.318Z,1017.31
2019-06-01T10:59:32.301Z,1017.37
2019-06-01T11:00:39.769Z,1016.27
2019-06-01T11:01:34.664Z,1016.31
2019-06-01T11:02:32.528Z,1016.55
2019-06-01T11:03:32.517Z,1016.73
2019-06-01T11:04:32.775Z,1017.38
2019-06-01T11:05:32.558Z,1017.30
2019-06-01T11:06:37.742Z,1017.29
2019-06-01T11:07:33.219Z,1017.29
2019-06-01T11:08:32.836Z,1017.25
2019-06-01T11:09:32.998Z,1017.20
2019-06-01T11:10:32.729Z,1017.13
2019-06-01T11:11:32.713Z,1017.09
2019-06-01T11:12:32.971Z,1017.12
2019-06-01T11:13:33.038Z,1017.10
2019-06-01T11:14:32.919Z,1017.05
2019-06-01T11:15:32.985Z,1016.99
2019-06-01T11:16:33.032Z,1017.06
2019-06-01T11:17:32.833Z,1017.07
2019-06-01T11:18:33.190Z,1017.02
2019-06-01T11:19:33.194Z,1017.02
2019-06-01T11:20:33.033Z,1017.05
2019-06-01T11:21:33.456Z,1017.04
2019-06-01T11:22:33.357Z,1017.05
2019-06-01T11:23:33.215Z,1016.98
2019-06-01T11:24:33.232Z,1017.04
2019-06-01T11:25:33.362Z,1017.08
2019-06-01T11:26:33.261Z,1017.06
2019-06-01T11:27:33.494Z,1016.94
2019-06-01T11:28:32.032Z,1016.96
2019-06-01T11:29:33.437Z,1017.01
2019-06-01T11:30:32.010Z,1016.97
2019-06-01T11:31:32.005Z,1016.88
2019-06-01T11:32:32.013Z,1016.89
2019-06-01T11:33:32.009Z,1016.90
2019-06-01T11:34:31.978Z,1016.97
2019-06-01T11:35:31.976Z,1016.90
2019-06-01T11:36:32.384Z,1016.86
2019-06-01T11:37:31.966Z,1016.90
2019-06-01T11:38:31.950Z,1015.88
2019-06-01T11:39:31.968Z,1015.76
2019-06-01T11:40:31.934Z,1016.82
2019-06-01T11:41:31.922Z,1016.26
2019-06-01T11:42:32.122Z,1016.87
2019-06-01T11:43:31.938Z,1016.82
2019-06-01T11:44:31.896Z,1016.87
2019-06-01T11:45:31.891Z,1015.67
2019-06-01T11:46:31.871Z,1016.00
2019-06-01T11:47:31.875Z,1015.77
2019-06-01T11:48:31.879Z,1016.67
2019-06-01T11:49:31.850Z,1016.23
2019-06-01T11:50:31.840Z,1016.74
2019-06-01T11:51:31.844Z,1016.72
2019-06-01T11:52:31.836Z,1016.68
2019-06-01T11:53:31.864Z,1016.71
2019-06-01T11:54:31.799Z,1016.69
2019-06-01T11:55:31.793Z,1016.71
2019-06-01T11:56:31.811Z,1016.61
2019-06-01T11:57:31.818Z,1016.68
2019-06-01T11:58:31.770Z,1016.66
2019-06-01T11:59:31.776Z,1016.70
2019-06-01T12:00:31.754Z,1016.56
2019-06-01T12:01:31.740Z,1016.62
2019-06-01T12:02:31.744Z,1015.58
2019-06-01T12:03:31.742Z,1016.55
2019-06-01T12:04:31.729Z,1016.66
2019-06-01T12:05:31.733Z,1016.64